createdAt,value
2018-08-30T00:00:07.702Z,19.22
2018-08-30T00:02:36.176Z,19.22
2018-08-30T00:05:05.085Z,19.34
2018-08-30T00:07:33.585Z,19.19
2018-08-30T00:10:02.093Z,19.26
2018-08-30T00:12:30.565Z,19.40
2018-08-30T00:14:59.052Z,19.46
2018-08-30T00:17:27.545Z,19.48
2018-08-30T00:19:56.054Z,19.51
2018-08-30T00:22:24.567Z,19.39
2018-08-30T00:24:53.076Z,19.38
2018-08-30T00:27:21.580Z,19.34
2018-08-30T00:29:50.081Z,19.35
2018-08-30T00:32:18.617Z,19.35
2018-08-30T00:34:47.096Z,19.39
2018-08-30T00:37:15.591Z,19.51
2018-08-30T00:39:44.054Z,19.45
2018-08-30T00:42:12.579Z,19.42
2018-08-30T00:44:41.129Z,19.39
2018-08-30T00:47:13.631Z,19.29
2018-08-30T00:49:42.116Z,19.20
2018-08-30T00:52:10.627Z,19.27
2018-08-30T00:54:39.101Z,19.19
2018-08-30T00:57:07.604Z,19.30
2018-08-30T00:59:36.054Z,19.33
2018-08-30T01:02:04.570Z,19.19
2018-08-30T01:04:33.101Z,19.16
2018-08-30T01:07:01.606Z,19.14
2018-08-30T01:09:30.077Z,19.11
2018-08-30T01:11:58.614Z,19.08
2018-08-30T01:14:27.089Z,19.13
2018-08-30T01:16:55.577Z,19.15
2018-08-30T01:19:24.068Z,19.11
2018-08-30T01:21:52.575Z,19.07
2018-08-30T01:24:21.107Z,19.09
2018-08-30T01:26:49.592Z,19.06
2018-08-30T01:29:18.113Z,19.00
2018-08-30T01:31:46.658Z,19.05
2018-08-30T01:34:15.131Z,19.05
2018-08-30T01:36:44.641Z,19.05
2018-08-30T01:39:13.137Z,18.98
2018-08-30T01:41:42.720Z,18.86
2018-08-30T01:44:11.790Z,18.80
2018-08-30T01:46:40.309Z,18.73
2018-08-30T01:49:08.785Z,18.65
2018-08-30T01:51:37.305Z,18.60
2018-08-30T01:54:05.992Z,18.59
2018-08-30T01:56:34.485Z,18.59
2018-08-30T01:59:02.971Z,18.54
2018-08-30T02:01:31.464Z,18.49
2018-08-30T02:03:59.930Z,18.50
2018-08-30T02:06:28.462Z,18.54
2018-08-30T02:08:56.993Z,18.61
2018-08-30T02:11:25.478Z,18.63
2018-08-30T02:13:53.972Z,18.62
2018-08-30T02:16:22.481Z,18.61
2018-08-30T02:18:51.012Z,18.57
2018-08-30T02:21:19.478Z,18.55
2018-08-30T02:23:47.977Z,18.54
2018-08-30T02:26:16.430Z,18.62
2018-08-30T02:28:44.921Z,18.67
2018-08-30T02:31:13.393Z,18.69
2018-08-30T02:33:41.889Z,18.74
2018-08-30T02:36:10.361Z,18.70
2018-08-30T02:38:38.872Z,18.76
2018-08-30T02:41:07.341Z,18.78
2018-08-30T02:43:35.812Z,18.72
2018-08-30T02:46:04.432Z,18.76
2018-08-30T02:48:32.940Z,18.79
2018-08-30T02:51:01.395Z,18.90
2018-08-30T02:53:29.892Z,18.96
2018-08-30T02:55:58.349Z,18.90
2018-08-30T03:12:10.993Z,18.76
2018-08-30T03:14:39.495Z,18.73
2018-08-30T03:17:07.982Z,18.68
2018-08-30T03:19:36.500Z,18.65
2018-08-30T03:22:04.960Z,18.63
2018-08-30T03:24:33.446Z,18.61
2018-08-30T03:27:01.909Z,18.59
2018-08-30T03:29:30.389Z,18.49
2018-08-30T03:31:58.857Z,18.52
2018-08-30T03:34:27.358Z,18.53
2018-08-30T03:36:55.813Z,18.52
2018-08-30T03:39:24.337Z,18.52
2018-08-30T03:41:52.801Z,18.50
2018-08-30T03:44:21.291Z,18.49
2018-08-30T03:46:49.773Z,18.44
2018-08-30T03:49:18.250Z,18.45
2018-08-30T03:51:46.709Z,18.37
2018-08-30T03:54:15.193Z,18.28
2018-08-30T03:56:43.637Z,18.37
2018-08-30T03:59:12.137Z,18.49
2018-08-30T04:01:40.634Z,18.58
2018-08-30T04:04:09.160Z,18.62
2018-08-30T04:06:37.631Z,18.68
2018-08-30T04:09:08.205Z,18.68
2018-08-30T04:11:36.741Z,18.69
2018-08-30T04:14:05.252Z,18.68
2018-08-30T04:16:33.705Z,18.62
2018-08-30T04:19:05.730Z,18.59
2018-08-30T04:21:34.689Z,18.55
2018-08-30T04:24:04.368Z,18.57
2018-08-30T04:26:32.881Z,18.53
2018-08-30T04:29:02.197Z,18.47
2018-08-30T04:31:30.935Z,18.42
2018-08-30T04:33:59.414Z,18.37
2018-08-30T04:36:27.870Z,18.39
2018-08-30T04:38:57.565Z,18.38
2018-08-30T04:41:26.230Z,18.40
2018-08-30T04:43:54.700Z,18.43
2018-08-30T04:46:23.196Z,18.55
2018-08-30T04:48:51.801Z,18.53
2018-08-30T04:51:20.281Z,18.47
2018-08-30T04:53:48.961Z,18.43
2018-08-30T04:56:17.402Z,18.45
2018-08-30T04:58:45.934Z,18.40
2018-08-30T05:01:15.852Z,18.45
2018-08-30T05:03:44.482Z,18.51
2018-08-30T05:06:12.973Z,18.47
2018-08-30T05:08:41.475Z,18.55
2018-08-30T05:11:10.352Z,18.58
2018-08-30T05:13:38.817Z,18.55
2018-08-30T05:16:09.432Z,18.51
2018-08-30T05:18:37.882Z,18.53
2018-08-30T05:21:06.388Z,18.57
2018-08-30T05:23:34.836Z,18.64
2018-08-30T05:26:03.334Z,18.63
2018-08-30T05:28:32.273Z,18.59
2018-08-30T05:31:00.782Z,18.50
2018-08-30T05:33:29.237Z,18.53
2018-08-30T05:35:57.742Z,18.51
2018-08-30T05:38:26.222Z,18.44
2018-08-30T05:40:54.708Z,18.46
2018-08-30T05:43:23.164Z,18.46
2018-08-30T05:45:51.655Z,18.42
2018-08-30T05:48:20.117Z,18.48
2018-08-30T05:50:48.600Z,18.48
2018-08-30T05:53:17.054Z,18.52
2018-08-30T05:55:45.600Z,18.58
2018-08-30T05:58:14.089Z,18.62
2018-08-30T06:00:42.613Z,18.72
2018-08-30T06:03:11.105Z,18.83
2018-08-30T06:05:39.598Z,18.93
2018-08-30T06:08:08.161Z,18.99
2018-08-30T06:10:36.721Z,19.10
2018-08-30T06:13:05.283Z,19.08
2018-08-30T06:15:33.749Z,19.30
2018-08-30T06:18:02.206Z,19.21
2018-08-30T06:20:30.706Z,19.19
2018-08-30T06:22:59.159Z,19.12
2018-08-30T06:25:27.655Z,19.07
2018-08-30T06:27:56.124Z,19.17
2018-08-30T06:30:24.667Z,19.10
2018-08-30T06:32:53.138Z,19.10
2018-08-30T06:35:21.658Z,19.21
2018-08-30T06:37:50.211Z,19.30
2018-08-30T06:40:18.692Z,19.34
2018-08-30T06:42:47.145Z,19.38
2018-08-30T06:45:15.641Z,19.66
2018-08-30T06:47:44.152Z,19.90
2018-08-30T06:50:12.634Z,19.76
2018-08-30T06:52:41.081Z,19.80
2018-08-30T07:02:11.089Z,19.69
2018-08-30T07:04:39.556Z,19.83
2018-08-30T07:07:08.110Z,19.86
2018-08-30T07:09:36.644Z,19.91
2018-08-30T07:12:05.489Z,19.97
2018-08-30T07:14:33.962Z,20.08
2018-08-30T07:17:02.453Z,20.02
2018-08-30T07:19:30.933Z,19.91
2018-08-30T07:21:59.455Z,20.15
2018-08-30T07:24:27.928Z,20.04
2018-08-30T07:26:56.436Z,19.87
2018-08-30T07:29:24.901Z,19.74
2018-08-30T07:31:53.393Z,19.61
2018-08-30T07:34:21.949Z,19.47
2018-08-30T07:36:50.365Z,19.40
2018-08-30T07:39:18.845Z,19.28
2018-08-30T07:41:47.324Z,19.22
2018-08-30T07:44:15.844Z,19.29
2018-08-30T07:46:44.286Z,19.38
2018-08-30T07:49:12.773Z,19.31
2018-08-30T07:51:41.288Z,19.38
2018-08-30T07:54:09.839Z,19.34
2018-08-30T07:56:38.483Z,19.35
2018-08-30T07:59:07.009Z,19.28
2018-08-30T08:01:35.519Z,19.23
2018-08-30T08:04:04.019Z,19.20
2018-08-30T08:06:32.537Z,19.52
2018-08-30T08:09:01.027Z,19.86
2018-08-30T08:11:29.569Z,20.10
2018-08-30T08:13:58.161Z,20.24
2018-08-30T08:16:26.700Z,20.44
2018-08-30T08:18:55.226Z,20.50
2018-08-30T08:21:23.759Z,20.80
2018-08-30T08:23:52.234Z,23.23
2018-08-30T08:26:20.836Z,24.46
2018-08-30T08:28:49.471Z,25.88
2018-08-30T08:31:17.999Z,26.34
2018-08-30T08:33:46.544Z,25.28
2018-08-30T08:36:15.118Z,23.92
2018-08-30T08:38:43.636Z,23.48
2018-08-30T08:41:12.174Z,22.70
2018-08-30T08:43:40.704Z,22.35
2018-08-30T08:46:09.237Z,21.65
2018-08-30T08:48:37.742Z,21.27
2018-08-30T08:51:06.466Z,20.99
2018-08-30T08:53:35.027Z,20.89
2018-08-30T08:56:03.518Z,20.47
2018-08-30T08:58:32.060Z,20.25
2018-08-30T09:01:00.538Z,20.29
2018-08-30T09:03:29.090Z,20.42
2018-08-30T09:05:57.589Z,20.41
2018-08-30T09:08:26.129Z,20.41
2018-08-30T09:10:54.950Z,20.51
2018-08-30T09:13:23.450Z,20.52
2018-08-30T09:15:51.945Z,20.29
2018-08-30T09:18:20.484Z,20.18
2018-08-30T09:20:49.338Z,20.29
2018-08-30T09:23:17.845Z,20.46
2018-08-30T09:25:46.330Z,20.63
2018-08-30T09:28:14.857Z,20.69
2018-08-30T09:30:43.333Z,20.95
2018-08-30T09:33:11.845Z,20.81
2018-08-30T09:35:40.333Z,21.02
2018-08-30T09:38:08.863Z,21.01
2018-08-30T09:40:37.374Z,21.27
2018-08-30T09:43:05.906Z,21.31
2018-08-30T09:45:34.772Z,21.41
2018-08-30T09:48:03.280Z,21.39
2018-08-30T09:50:31.793Z,21.37
2018-08-30T09:53:00.325Z,21.40
2018-08-30T09:55:28.793Z,21.20
2018-08-30T09:57:57.310Z,21.10
2018-08-30T10:01:28.728Z,20.99
2018-08-30T10:03:57.312Z,21.18
2018-08-30T10:06:26.093Z,21.50
2018-08-30T10:08:55.641Z,21.35
2018-08-30T10:11:24.190Z,21.58
2018-08-30T10:13:54.039Z,21.69
2018-08-30T10:16:22.549Z,21.56
2018-08-30T10:18:51.821Z,21.79
2018-08-30T10:21:20.384Z,21.69
2018-08-30T10:23:49.621Z,21.61
2018-08-30T10:26:18.607Z,21.56
2018-08-30T10:28:47.159Z,21.64
2018-08-30T10:31:15.638Z,21.60
2018-08-30T10:33:44.129Z,21.31
2018-08-30T10:36:12.573Z,21.42
2018-08-30T10:38:41.301Z,21.27
2018-08-30T10:41:09.808Z,21.10
2018-08-30T10:43:38.325Z,21.05
2018-08-30T10:46:06.926Z,21.22
2018-08-30T10:48:35.615Z,21.32
2018-08-30T10:51:04.090Z,21.39
2018-08-30T10:53:32.692Z,21.58
2018-08-30T10:56:01.511Z,21.77
2018-08-30T10:58:30.080Z,21.61
2018-08-30T11:00:58.629Z,21.50
2018-08-30T11:03:27.292Z,21.44
2018-08-30T11:05:55.885Z,21.30
2018-08-30T11:08:24.412Z,21.08
2018-08-30T11:10:52.941Z,21.17
2018-08-30T11:13:21.567Z,21.24
2018-08-30T11:15:50.067Z,21.48
2018-08-30T11:18:18.732Z,21.73
2018-08-30T11:20:50.205Z,21.89
2018-08-30T11:23:18.745Z,22.00
2018-08-30T11:25:47.346Z,22.06
2018-08-30T11:28:15.873Z,21.68
2018-08-30T11:30:44.428Z,21.95
2018-08-30T11:33:13.021Z,22.00
2018-08-30T11:35:41.540Z,21.75
2018-08-30T11:38:10.061Z,21.70
2018-08-30T11:40:38.542Z,21.61
2018-08-30T11:43:07.121Z,21.56
2018-08-30T11:45:35.719Z,21.49
2018-08-30T11:48:04.539Z,21.57
2018-08-30T11:50:33.061Z,21.54
2018-08-30T11:53:01.525Z,21.82
2018-08-30T11:55:30.055Z,21.97
2018-08-30T11:57:58.557Z,21.98
2018-08-30T12:00:27.074Z,22.26
2018-08-30T12:02:58.009Z,22.72
2018-08-30T12:05:26.609Z,22.77
2018-08-30T12:07:55.195Z,23.28
2018-08-30T12:10:24.117Z,23.75
2018-08-30T12:12:52.796Z,24.20
2018-08-30T12:15:21.321Z,24.45
2018-08-30T12:17:51.511Z,24.72
2018-08-30T12:20:20.137Z,25.54
2018-08-30T12:22:49.326Z,26.07
2018-08-30T12:25:18.550Z,26.23
2018-08-30T12:27:48.002Z,26.55
2018-08-30T12:30:16.586Z,26.20
2018-08-30T12:32:45.127Z,25.38
2018-08-30T12:35:13.727Z,25.18
2018-08-30T12:37:44.167Z,24.97
2018-08-30T12:40:12.780Z,24.47
2018-08-30T12:42:41.267Z,24.00
2018-08-30T12:45:09.787Z,23.66
2018-08-30T12:47:38.298Z,23.10
2018-08-30T12:50:07.253Z,22.77
2018-08-30T12:52:35.803Z,22.55
2018-08-30T12:55:04.359Z,22.25
2018-08-30T12:57:32.829Z,22.17
2018-08-30T13:00:01.425Z,22.33
2018-08-30T13:02:29.983Z,22.19
2018-08-30T13:04:58.452Z,22.55
2018-08-30T13:07:27.005Z,22.39
2018-08-30T13:09:55.826Z,22.62
2018-08-30T13:12:24.345Z,22.82
2018-08-30T13:14:52.882Z,22.44
2018-08-30T13:17:21.319Z,22.35
2018-08-30T13:19:50.054Z,22.44
2018-08-30T13:22:18.341Z,22.59
2018-08-30T13:24:46.988Z,22.41
2018-08-30T13:27:15.406Z,22.47
2018-08-30T13:29:44.068Z,22.40
2018-08-30T13:32:12.587Z,22.35
2018-08-30T13:34:41.039Z,22.27
2018-08-30T13:37:09.729Z,21.87
2018-08-30T13:39:38.258Z,21.74
2018-08-30T13:42:06.643Z,21.59
2018-08-30T13:44:35.217Z,21.71
2018-08-30T13:47:03.693Z,21.89
2018-08-30T13:49:32.094Z,21.84
2018-08-30T13:52:00.753Z,21.82
2018-08-30T13:54:29.922Z,22.11
2018-08-30T13:56:58.605Z,22.13
2018-08-30T13:59:27.284Z,22.57
2018-08-30T14:01:55.479Z,22.89
2018-08-30T14:04:23.891Z,22.92
2018-08-30T14:06:52.516Z,23.05
2018-08-30T14:09:21.108Z,23.18
2018-08-30T14:11:49.652Z,23.21
2018-08-30T14:14:18.033Z,23.40
2018-08-30T14:16:46.330Z,23.42
2018-08-30T14:19:15.251Z,23.29
2018-08-30T14:21:43.738Z,23.09
2018-08-30T14:24:12.224Z,22.89
2018-08-30T14:26:40.848Z,23.08
2018-08-30T14:29:09.664Z,23.12
2018-08-30T14:31:38.170Z,23.19
2018-08-30T14:34:06.658Z,23.42
2018-08-30T14:36:35.201Z,23.51
2018-08-30T14:39:04.074Z,23.69
2018-08-30T14:41:32.692Z,23.94
2018-08-30T14:44:01.162Z,24.10
2018-08-30T14:46:29.648Z,24.49
2018-08-30T14:48:58.138Z,24.56
2018-08-30T14:51:26.658Z,24.69
2018-08-30T14:53:55.301Z,25.15
2018-08-30T14:56:23.607Z,24.91
2018-08-30T14:58:52.068Z,25.22
2018-08-30T15:01:20.636Z,25.14
2018-08-30T15:03:49.082Z,25.14
2018-08-30T15:06:17.767Z,24.93
2018-08-30T15:08:46.142Z,24.39
2018-08-30T15:11:14.672Z,24.16
2018-08-30T15:13:43.131Z,24.35
2018-08-30T15:16:11.645Z,24.27
2018-08-30T15:18:40.122Z,24.38
2018-08-30T15:21:10.726Z,24.57
2018-08-30T15:23:39.798Z,24.53
2018-08-30T15:26:08.326Z,24.73
2018-08-30T15:28:38.910Z,24.87
2018-08-30T15:31:07.572Z,24.71
2018-08-30T15:33:35.929Z,24.61
2018-08-30T15:36:04.625Z,24.42
2018-08-30T15:38:33.126Z,24.40
2018-08-30T15:41:04.305Z,24.06
2018-08-30T15:43:32.815Z,23.88
2018-08-30T15:46:01.329Z,23.96
2018-08-30T15:48:30.305Z,23.66
2018-08-30T15:50:58.793Z,23.42
2018-08-30T15:53:27.889Z,23.57
2018-08-30T15:55:56.449Z,23.86
2018-08-30T15:58:25.898Z,24.38
2018-08-30T16:00:55.202Z,25.22
2018-08-30T16:03:23.713Z,25.38
2018-08-30T16:05:52.268Z,24.94
2018-08-30T16:08:20.786Z,24.62
2018-08-30T16:10:49.283Z,24.75
2018-08-30T16:13:17.771Z,24.69
2018-08-30T16:15:46.223Z,25.18
2018-08-30T16:18:14.738Z,25.41
2018-08-30T16:20:43.190Z,26.48
2018-08-30T16:23:23.842Z,26.56
2018-08-30T16:25:52.234Z,27.01
2018-08-30T16:28:20.893Z,27.11
2018-08-30T16:30:49.459Z,27.71
2018-08-30T16:33:18.143Z,28.52
2018-08-30T16:35:46.708Z,28.01
2018-08-30T16:38:15.628Z,27.93
2018-08-30T16:40:44.468Z,27.48
2018-08-30T16:43:12.993Z,26.71
2018-08-30T16:45:41.479Z,26.38
2018-08-30T16:48:09.969Z,26.54
2018-08-30T16:50:38.458Z,26.81
2018-08-30T16:53:07.020Z,26.31
2018-08-30T16:55:35.912Z,25.89
2018-08-30T16:58:04.545Z,25.90
2018-08-30T17:00:33.153Z,25.47
2018-08-30T17:03:01.778Z,24.87
2018-08-30T17:05:30.311Z,25.07
2018-08-30T17:07:59.457Z,25.29
2018-08-30T17:10:28.221Z,25.11
2018-08-30T17:12:57.365Z,24.94
2018-08-30T17:15:25.870Z,24.98
2018-08-30T17:17:54.476Z,24.81
2018-08-30T17:20:42.546Z,24.43
2018-08-30T17:23:11.437Z,24.20
2018-08-30T17:25:40.309Z,23.84
2018-08-30T17:28:08.822Z,23.60
2018-08-30T17:30:37.306Z,23.16
2018-08-30T17:33:05.912Z,22.62
2018-08-30T17:35:34.425Z,22.27
2018-08-30T17:38:02.918Z,22.01
2018-08-30T17:40:31.422Z,21.63
2018-08-30T17:43:00.105Z,21.49
2018-08-30T17:45:28.583Z,21.09
2018-08-30T17:47:57.082Z,20.88
2018-08-30T17:50:27.073Z,20.76
2018-08-30T17:52:55.499Z,20.62
2018-08-30T17:55:24.026Z,20.36
2018-08-30T17:57:53.071Z,20.25
2018-08-30T18:00:21.954Z,20.07
2018-08-30T18:02:50.574Z,19.86
2018-08-30T18:05:19.217Z,19.64
2018-08-30T18:07:47.783Z,19.55
2018-08-30T18:10:16.264Z,19.37
2018-08-30T18:12:44.714Z,19.33
2018-08-30T18:15:14.739Z,19.26
2018-08-30T18:17:44.375Z,19.16
2018-08-30T18:20:12.901Z,19.14
2018-08-30T18:22:41.389Z,19.08
2018-08-30T18:25:10.530Z,19.00
2018-08-30T18:27:38.985Z,18.99
2018-08-30T18:30:09.981Z,18.87
2018-08-30T18:32:38.818Z,18.76
2018-08-30T18:35:08.933Z,18.58
2018-08-30T18:37:38.740Z,18.47
2018-08-30T18:40:08.233Z,18.47
2018-08-30T18:42:38.523Z,18.40
2018-08-30T18:45:08.038Z,18.35
2018-08-30T18:47:36.872Z,18.29
2018-08-30T18:50:05.437Z,18.26
2018-08-30T18:52:34.260Z,18.20
2018-08-30T18:55:04.052Z,18.21
2018-08-30T18:57:32.497Z,18.06
2018-08-30T19:00:00.989Z,17.88
2018-08-30T19:02:29.455Z,17.84
2018-08-30T19:04:57.956Z,17.77
2018-08-30T19:07:26.432Z,17.65
2018-08-30T19:09:54.937Z,17.49
2018-08-30T19:12:23.391Z,17.38
2018-08-30T19:14:51.856Z,17.36
2018-08-30T19:17:25.402Z,17.29
2018-08-30T19:19:53.933Z,17.22
2018-08-30T19:22:22.387Z,17.29
2018-08-30T19:25:00.072Z,17.29
2018-08-30T19:27:30.337Z,17.33
2018-08-30T19:30:04.145Z,17.31
2018-08-30T19:32:33.341Z,17.24
2018-08-30T19:35:07.873Z,17.20
2018-08-30T19:37:36.349Z,17.16
2018-08-30T19:40:04.982Z,17.13
2018-08-30T19:42:33.509Z,17.02
2018-08-30T19:45:03.832Z,16.99
2018-08-30T19:47:32.378Z,17.01
2018-08-30T19:50:00.877Z,16.99
2018-08-30T19:52:33.027Z,16.94
2018-08-30T19:55:02.028Z,16.90
2018-08-30T19:57:30.493Z,16.88
2018-08-30T19:59:59.445Z,16.78
2018-08-30T20:02:27.955Z,16.71
2018-08-30T20:04:57.726Z,16.62
2018-08-30T20:07:26.204Z,16.59
2018-08-30T20:09:54.706Z,16.50
2018-08-30T20:12:23.877Z,16.45
2018-08-30T20:14:52.445Z,16.41
2018-08-30T20:17:20.986Z,16.37
2018-08-30T20:19:49.513Z,16.38
2018-08-30T20:22:18.022Z,16.38
2018-08-30T20:24:46.515Z,16.36
2018-08-30T20:27:15.014Z,16.21
2018-08-30T20:29:43.512Z,16.21
2018-08-30T20:32:12.011Z,16.17
2018-08-30T20:34:40.521Z,16.14
2018-08-30T20:37:08.989Z,16.11
2018-08-30T20:39:37.482Z,16.00
2018-08-30T20:42:08.265Z,15.95
2018-08-30T20:44:36.813Z,15.95
2018-08-30T20:47:05.403Z,15.86
2018-08-30T20:49:33.910Z,15.79
2018-08-30T20:52:02.421Z,15.80
2018-08-30T20:54:30.940Z,15.79
2018-08-30T20:56:59.495Z,15.72
2018-08-30T20:59:28.140Z,15.71
2018-08-30T21:01:56.797Z,15.68
2018-08-30T21:04:25.380Z,15.64
2018-08-30T21:06:53.946Z,15.66
2018-08-30T21:09:22.401Z,15.71
2018-08-30T21:11:50.856Z,15.56
2018-08-30T21:14:19.290Z,15.18
2018-08-30T21:16:47.782Z,15.17
2018-08-30T21:19:16.306Z,15.16
2018-08-30T21:21:44.799Z,15.16
2018-08-30T21:24:13.261Z,15.15
2018-08-30T21:26:41.766Z,15.10
2018-08-30T21:29:10.283Z,15.04
2018-08-30T21:31:38.778Z,15.05
2018-08-30T21:34:07.348Z,15.05
2018-08-30T21:36:36.154Z,15.12
2018-08-30T21:39:05.864Z,15.11
2018-08-30T21:41:35.169Z,15.02
2018-08-30T21:44:03.688Z,15.05
2018-08-30T21:46:32.350Z,15.03
2018-08-30T21:49:00.857Z,14.96
2018-08-30T21:51:29.389Z,14.89
2018-08-30T21:53:57.862Z,14.81
2018-08-30T21:56:26.357Z,14.76
2018-08-30T21:58:54.807Z,14.75
2018-08-30T22:01:23.337Z,14.77
2018-08-30T22:03:51.809Z,14.78
2018-08-30T22:06:20.309Z,14.79
2018-08-30T22:08:48.764Z,14.71
2018-08-30T22:11:17.286Z,14.77
2018-08-30T22:13:45.789Z,14.72
2018-08-30T22:16:14.307Z,14.67
2018-08-30T22:18:42.775Z,14.62
2018-08-30T22:21:11.279Z,14.59
2018-08-30T22:23:39.740Z,14.56
2018-08-30T22:26:08.277Z,14.56
2018-08-30T22:28:36.773Z,14.44
2018-08-30T22:31:05.361Z,14.45
2018-08-30T22:33:33.834Z,14.47
2018-08-30T22:36:02.337Z,14.42
2018-08-30T22:38:30.837Z,14.38
2018-08-30T22:40:59.325Z,14.24
2018-08-30T22:43:27.788Z,14.18
2018-08-30T22:45:56.558Z,14.22
2018-08-30T22:48:25.093Z,14.19
2018-08-30T22:50:53.554Z,14.23
2018-08-30T22:53:22.052Z,14.25
2018-08-30T22:55:50.518Z,14.25
2018-08-30T22:58:18.996Z,14.23
2018-08-30T23:00:47.465Z,14.20
2018-08-30T23:03:15.953Z,14.24
2018-08-30T23:05:44.449Z,14.21
2018-08-30T23:08:12.926Z,14.11
2018-08-30T23:10:41.383Z,14.13
2018-08-30T23:13:09.913Z,14.13
2018-08-30T23:15:38.376Z,14.15
2018-08-30T23:18:06.952Z,14.14
2018-08-30T23:20:35.405Z,14.14
2018-08-30T23:23:03.935Z,14.02
2018-08-30T23:25:32.394Z,13.95
2018-08-30T23:28:00.924Z,14.00
2018-08-30T23:30:29.409Z,13.99
2018-08-30T23:32:57.919Z,13.92
2018-08-30T23:35:27.743Z,13.95
2018-08-30T23:37:56.208Z,13.86
2018-08-30T23:40:24.704Z,13.83
2018-08-30T23:42:53.248Z,13.71
2018-08-30T23:45:22.302Z,13.64
2018-08-30T23:47:52.244Z,13.72
2018-08-30T23:50:21.318Z,13.71
2018-08-30T23:52:49.792Z,13.58
2018-08-30T23:55:18.278Z,13.58
2018-08-30T23:59:01.884Z,13.48
